createdAt,value
2023-04-29T00:00:09.873Z,11.50
2023-04-29T00:02:36.998Z,11.50
2023-04-29T00:05:05.463Z,11.40
2023-04-29T00:07:32.524Z,11.40
2023-04-29T00:10:00.418Z,11.30
2023-04-29T00:12:28.116Z,11.30
2023-04-29T00:14:56.186Z,11.30
2023-04-29T00:17:25.901Z,11.20
2023-04-29T00:19:54.262Z,11.10
2023-04-29T00:22:23.627Z,11.10
2023-04-29T00:24:50.920Z,11.10
2023-04-29T00:27:17.860Z,11.10
2023-04-29T00:29:44.770Z,11.00
2023-04-29T00:32:12.034Z,11.00
2023-04-29T00:34:39.257Z,11.00
2023-04-29T00:37:05.960Z,11.00
2023-04-29T00:39:34.374Z,11.00
2023-04-29T00:42:01.051Z,11.00
2023-04-29T00:44:29.084Z,11.00
2023-04-29T00:46:55.894Z,11.00
2023-04-29T00:49:23.076Z,11.00
2023-04-29T00:51:52.665Z,11.00
2023-04-29T00:54:19.723Z,11.00
2023-04-29T00:56:47.235Z,11.10
2023-04-29T00:59:15.868Z,11.10
2023-04-29T01:01:42.724Z,11.10
2023-04-29T01:04:10.158Z,11.20
2023-04-29T01:06:51.198Z,11.20
2023-04-29T01:09:42.061Z,11.20
2023-04-29T01:12:08.775Z,11.20
2023-04-29T01:14:39.508Z,11.20
2023-04-29T01:17:10.782Z,11.20
2023-04-29T01:19:52.862Z,11.20
2023-04-29T01:22:22.067Z,11.20
2023-04-29T01:24:49.983Z,11.20
2023-04-29T01:27:20.126Z,11.20
2023-04-29T01:29:59.661Z,11.20
2023-04-29T01:32:30.101Z,11.20
2023-04-29T01:34:56.718Z,11.20
2023-04-29T01:37:42.828Z,11.20
2023-04-29T01:40:19.696Z,11.10
2023-04-29T01:42:56.773Z,11.10
2023-04-29T01:45:24.297Z,11.00
2023-04-29T01:47:53.079Z,11.00
2023-04-29T01:50:19.982Z,11.00
2023-04-29T01:52:46.958Z,10.90
2023-04-29T01:55:13.557Z,10.90
2023-04-29T01:57:40.218Z,10.80
2023-04-29T02:00:07.271Z,10.80
2023-04-29T02:02:41.153Z,10.80
2023-04-29T02:05:09.332Z,10.80
2023-04-29T02:07:35.963Z,10.80
2023-04-29T02:10:04.821Z,10.80
2023-04-29T02:12:32.094Z,10.80
2023-04-29T02:15:00.727Z,10.80
2023-04-29T02:17:30.101Z,10.80
2023-04-29T02:19:58.353Z,10.80
2023-04-29T02:22:25.909Z,10.70
2023-04-29T02:24:52.786Z,10.70
2023-04-29T02:27:19.796Z,10.80
2023-04-29T02:29:47.100Z,10.80
2023-04-29T02:32:16.119Z,10.80
2023-04-29T02:34:43.667Z,10.90
2023-04-29T02:37:11.300Z,10.90
2023-04-29T02:39:38.770Z,10.90
2023-04-29T02:42:05.889Z,10.90
2023-04-29T02:44:34.767Z,11.00
2023-04-29T02:47:03.785Z,11.00
2023-04-29T02:49:31.821Z,11.00
2023-04-29T02:52:01.031Z,11.00
2023-04-29T02:54:30.138Z,11.00
2023-04-29T02:56:57.943Z,11.00
2023-04-29T02:59:24.857Z,11.00
2023-04-29T03:01:51.692Z,10.90
2023-04-29T03:04:19.836Z,11.00
2023-04-29T03:06:47.217Z,11.00
2023-04-29T03:09:14.492Z,11.00
2023-04-29T03:11:41.507Z,11.00
2023-04-29T03:14:08.681Z,11.00
2023-04-29T03:16:35.658Z,11.00
2023-04-29T03:19:03.520Z,11.00
2023-04-29T03:21:30.234Z,11.00
2023-04-29T03:23:57.119Z,10.90
2023-04-29T03:26:24.503Z,10.80
2023-04-29T03:28:51.908Z,10.80
2023-04-29T03:31:23.122Z,10.80
2023-04-29T03:33:53.159Z,10.80
2023-04-29T03:36:20.994Z,10.70
2023-04-29T03:38:47.868Z,10.60
2023-04-29T03:41:14.948Z,10.50
2023-04-29T03:43:44.041Z,10.50
2023-04-29T03:46:11.140Z,10.40
2023-04-29T03:48:38.856Z,10.30
2023-04-29T03:51:08.182Z,10.30
2023-04-29T03:53:35.120Z,10.30
2023-04-29T03:56:02.155Z,10.30
2023-04-29T03:58:30.127Z,10.30
2023-04-29T04:00:56.987Z,10.30
2023-04-29T04:03:25.816Z,10.30
2023-04-29T04:05:52.826Z,10.40
2023-04-29T04:08:19.707Z,10.50
2023-04-29T04:10:49.588Z,10.50
2023-04-29T04:13:16.511Z,10.50
2023-04-29T04:15:50.385Z,10.50
2023-04-29T04:18:17.565Z,10.50
2023-04-29T04:20:44.248Z,10.50
2023-04-29T04:23:12.577Z,10.50
2023-04-29T04:25:44.691Z,10.50
2023-04-29T04:28:13.225Z,10.60
2023-04-29T04:30:42.460Z,10.60
2023-04-29T04:33:10.713Z,10.70
2023-04-29T04:35:38.970Z,10.80
2023-04-29T04:38:05.776Z,10.80
2023-04-29T04:40:37.704Z,10.90
2023-04-29T04:43:04.513Z,11.00
2023-04-29T04:45:31.609Z,11.10
2023-04-29T04:47:59.013Z,11.20
2023-04-29T04:50:27.977Z,11.30
2023-04-29T04:52:55.806Z,11.40
2023-04-29T04:55:24.224Z,11.60
2023-04-29T04:57:53.743Z,11.70
2023-04-29T05:00:22.426Z,11.90
2023-04-29T05:02:58.932Z,12.10
2023-04-29T05:05:31.174Z,12.20
2023-04-29T05:08:05.591Z,12.30
2023-04-29T05:10:35.827Z,12.30
2023-04-29T05:13:02.887Z,12.40
2023-04-29T05:15:31.214Z,12.50
2023-04-29T05:18:02.020Z,12.50
2023-04-29T05:20:29.132Z,12.60
2023-04-29T05:22:58.243Z,12.60
2023-04-29T05:25:24.946Z,12.70
2023-04-29T05:27:54.107Z,12.70
2023-04-29T05:30:23.406Z,12.80
2023-04-29T05:32:51.399Z,12.80
2023-04-29T05:35:19.266Z,12.90
2023-04-29T05:37:46.196Z,13.10
2023-04-29T05:40:14.671Z,13.30
2023-04-29T05:42:48.649Z,13.40
2023-04-29T05:45:18.290Z,13.50
2023-04-29T05:47:46.803Z,13.70
2023-04-29T05:50:13.591Z,14.00
2023-04-29T05:52:40.634Z,14.30
2023-04-29T05:55:10.204Z,14.40
2023-04-29T05:57:38.072Z,14.60
2023-04-29T06:00:07.117Z,14.80
2023-04-29T06:02:41.595Z,15.10
2023-04-29T06:05:19.149Z,15.40
2023-04-29T06:07:47.370Z,15.60
2023-04-29T06:10:15.306Z,15.80
2023-04-29T06:12:42.288Z,15.90
2023-04-29T06:15:15.461Z,16.10
2023-04-29T06:17:42.595Z,16.20
2023-04-29T06:20:10.697Z,16.30
2023-04-29T06:22:37.613Z,16.50
2023-04-29T06:25:05.688Z,16.60
2023-04-29T06:27:32.782Z,16.70
2023-04-29T06:29:59.856Z,16.80
2023-04-29T06:32:29.516Z,16.80
2023-04-29T06:35:04.850Z,16.80
2023-04-29T06:37:31.815Z,16.70
2023-04-29T06:40:00.811Z,16.70
2023-04-29T06:42:37.249Z,16.70
2023-04-29T06:45:07.283Z,16.70
2023-04-29T06:47:37.218Z,16.60
2023-04-29T06:50:05.236Z,16.90
2023-04-29T06:52:35.696Z,17.10
2023-04-29T06:55:04.746Z,17.20
2023-04-29T06:57:34.056Z,17.40
2023-04-29T07:00:00.922Z,17.50
2023-04-29T07:02:27.862Z,17.50
2023-04-29T07:04:57.676Z,17.60
2023-04-29T07:07:25.027Z,17.70
2023-04-29T07:09:53.749Z,17.80
2023-04-29T07:12:20.937Z,18.00
2023-04-29T07:14:49.257Z,17.90
2023-04-29T07:17:18.140Z,18.00
2023-04-29T07:19:46.626Z,17.90
2023-04-29T07:22:13.487Z,17.90
2023-04-29T07:24:40.567Z,18.20
2023-04-29T07:27:07.506Z,18.40
2023-04-29T07:29:35.427Z,18.50
2023-04-29T07:32:06.356Z,18.60
2023-04-29T07:34:34.863Z,18.70
2023-04-29T07:37:01.547Z,18.80
2023-04-29T07:39:29.809Z,18.90
2023-04-29T07:41:56.472Z,19.00
2023-04-29T07:44:26.274Z,19.10
2023-04-29T07:46:53.076Z,19.30
2023-04-29T07:49:19.926Z,19.10
2023-04-29T07:51:46.767Z,19.10
2023-04-29T07:54:13.584Z,18.90
2023-04-29T07:56:40.154Z,19.10
2023-04-29T07:59:06.816Z,19.10
2023-04-29T08:01:33.450Z,19.20
2023-04-29T08:04:00.340Z,19.30
2023-04-29T08:06:27.201Z,19.50
2023-04-29T08:08:53.848Z,19.70
2023-04-29T08:11:21.345Z,19.50
2023-04-29T08:13:50.351Z,19.50
2023-04-29T08:16:17.034Z,19.70
2023-04-29T08:18:43.772Z,19.90
2023-04-29T08:21:13.882Z,20.20
2023-04-29T08:23:40.681Z,20.30
2023-04-29T08:26:08.222Z,20.50
2023-04-29T08:28:34.864Z,20.40
2023-04-29T08:31:01.568Z,20.50
2023-04-29T08:33:29.538Z,20.50
2023-04-29T08:36:02.597Z,20.40
2023-04-29T08:38:32.382Z,20.40
2023-04-29T08:40:59.184Z,20.50
2023-04-29T08:43:27.479Z,20.60
2023-04-29T08:45:54.966Z,20.60
2023-04-29T08:48:22.186Z,20.50
2023-04-29T08:50:48.847Z,20.60
2023-04-29T08:53:16.101Z,20.50
2023-04-29T08:55:47.308Z,20.30
2023-04-29T08:58:14.706Z,20.20
2023-04-29T09:00:50.766Z,20.30
2023-04-29T09:03:38.940Z,20.30
2023-04-29T09:06:06.637Z,20.40
2023-04-29T09:08:35.449Z,20.60
2023-04-29T09:11:09.321Z,20.60
2023-04-29T09:13:36.100Z,20.90
2023-04-29T09:16:03.567Z,20.90
2023-04-29T09:18:46.019Z,20.90
2023-04-29T09:21:19.666Z,20.90
2023-04-29T09:23:55.383Z,21.10
2023-04-29T09:26:22.811Z,21.00
2023-04-29T09:29:16.575Z,21.00
2023-04-29T09:31:43.688Z,21.00
2023-04-29T09:34:14.897Z,21.00
2023-04-29T09:36:45.100Z,21.00
2023-04-29T09:39:17.421Z,21.10
2023-04-29T09:41:52.396Z,21.30
2023-04-29T09:44:23.673Z,21.40
2023-04-29T09:46:58.747Z,21.70
2023-04-29T09:49:28.152Z,21.90
2023-04-29T09:51:56.385Z,22.10
2023-04-29T09:54:24.354Z,22.50
2023-04-29T09:56:53.315Z,22.80
2023-04-29T09:59:20.202Z,22.70
2023-04-29T10:01:51.069Z,23.00
2023-04-29T10:04:22.482Z,23.10
2023-04-29T10:06:50.521Z,22.80
2023-04-29T10:09:19.469Z,22.40
2023-04-29T10:11:47.823Z,22.00
2023-04-29T10:14:22.489Z,21.80
2023-04-29T10:16:52.096Z,21.50
2023-04-29T10:19:20.297Z,21.20
2023-04-29T10:21:50.601Z,21.00
2023-04-29T10:24:17.937Z,20.80
2023-04-29T10:26:47.046Z,20.80
2023-04-29T10:29:16.599Z,21.30
2023-04-29T10:31:44.193Z,21.70
2023-04-29T10:34:12.163Z,22.00
2023-04-29T10:36:43.348Z,22.30
2023-04-29T10:39:18.821Z,22.50
2023-04-29T10:41:49.201Z,22.30
2023-04-29T10:44:22.205Z,22.00
2023-04-29T10:46:49.107Z,21.80
2023-04-29T10:49:21.772Z,21.80
2023-04-29T10:51:50.482Z,21.80
2023-04-29T10:54:19.877Z,22.00
2023-04-29T10:56:53.977Z,22.00
2023-04-29T10:59:24.143Z,22.10
2023-04-29T11:01:53.246Z,22.30
2023-04-29T11:04:22.102Z,22.40
2023-04-29T11:06:54.001Z,22.30
2023-04-29T11:09:22.240Z,22.20
2023-04-29T11:11:55.260Z,21.90
2023-04-29T11:14:44.481Z,21.70
2023-04-29T11:17:15.981Z,21.40
2023-04-29T11:19:46.220Z,21.40
2023-04-29T11:22:18.883Z,21.30
2023-04-29T11:24:54.601Z,21.30
2023-04-29T11:27:25.442Z,21.30
2023-04-29T11:29:58.209Z,21.30
2023-04-29T11:32:26.532Z,21.40
2023-04-29T11:35:14.921Z,21.60
2023-04-29T11:37:45.559Z,21.60
2023-04-29T11:40:14.125Z,22.00
2023-04-29T11:42:41.666Z,22.30
2023-04-29T11:45:14.505Z,22.30
2023-04-29T11:47:46.339Z,22.50
2023-04-29T11:50:24.294Z,22.50
2023-04-29T11:52:54.241Z,22.10
2023-04-29T11:55:22.456Z,22.00
2023-04-29T11:57:49.768Z,21.90
2023-04-29T12:00:16.973Z,22.00
2023-04-29T12:02:44.740Z,22.00
2023-04-29T12:05:15.352Z,21.90
2023-04-29T12:07:42.844Z,21.70
2023-04-29T12:10:12.109Z,21.80
2023-04-29T12:12:40.927Z,21.80
2023-04-29T12:15:11.660Z,22.00
2023-04-29T12:17:41.913Z,22.20
2023-04-29T12:20:10.625Z,22.10
2023-04-29T12:22:37.775Z,22.10
2023-04-29T12:25:08.380Z,22.10
2023-04-29T12:27:42.014Z,22.10
2023-04-29T12:30:10.033Z,22.40
2023-04-29T12:32:37.448Z,22.60
2023-04-29T12:35:06.075Z,22.60
2023-04-29T12:37:35.673Z,22.80
2023-04-29T12:40:02.592Z,22.50
2023-04-29T12:42:36.822Z,22.40
2023-04-29T12:45:04.321Z,22.40
2023-04-29T12:47:39.608Z,22.60
2023-04-29T12:50:07.955Z,22.80
2023-04-29T12:52:36.605Z,22.80
2023-04-29T12:55:07.137Z,22.80
2023-04-29T12:57:33.821Z,22.60
2023-04-29T13:00:10.479Z,22.50
2023-04-29T13:02:39.761Z,22.50
2023-04-29T13:05:07.727Z,22.50
2023-04-29T13:07:34.924Z,22.50
2023-04-29T13:10:05.961Z,22.70
2023-04-29T13:12:34.477Z,22.80
2023-04-29T13:15:01.261Z,22.80
2023-04-29T13:17:28.840Z,22.80
2023-04-29T13:20:01.178Z,23.00
2023-04-29T13:22:28.413Z,23.00
2023-04-29T13:24:59.655Z,23.20
2023-04-29T13:27:28.656Z,23.20
2023-04-29T13:29:56.577Z,23.10
2023-04-29T13:32:25.074Z,23.00
2023-04-29T13:34:54.441Z,22.90
2023-04-29T13:37:22.990Z,22.90
2023-04-29T13:39:57.193Z,22.50
2023-04-29T13:42:26.945Z,22.40
2023-04-29T13:44:59.117Z,22.10
2023-04-29T13:47:31.193Z,21.90
2023-04-29T13:50:46.246Z,21.80
2023-04-29T14:01:01.328Z,22.30
2023-04-29T14:03:14.456Z,22.30
2023-04-29T14:05:45.656Z,22.40
2023-04-29T14:08:12.817Z,22.50
2023-04-29T14:10:39.971Z,22.50
2023-04-29T14:13:08.323Z,22.50
2023-04-29T14:15:37.692Z,22.30
2023-04-29T14:18:11.674Z,22.20
2023-04-29T14:20:40.516Z,22.10
2023-04-29T14:23:07.167Z,22.10
2023-04-29T14:25:35.242Z,22.10
2023-04-29T14:28:07.184Z,22.10
2023-04-29T14:30:34.547Z,22.00
2023-04-29T14:33:04.868Z,21.90
2023-04-29T14:35:34.386Z,21.80
2023-04-29T14:38:06.978Z,21.80
2023-04-29T14:40:36.966Z,21.80
2023-04-29T14:43:04.558Z,21.60
2023-04-29T14:45:32.580Z,21.70
2023-04-29T14:48:01.798Z,21.70
2023-04-29T14:50:36.221Z,21.60
2023-04-29T14:53:03.049Z,21.70
2023-04-29T14:55:32.921Z,21.60
2023-04-29T14:57:59.673Z,21.50
2023-04-29T15:00:27.718Z,21.50
2023-04-29T15:03:04.617Z,21.60
2023-04-29T15:05:38.595Z,21.60
2023-04-29T15:08:05.688Z,21.50
2023-04-29T15:10:32.556Z,21.50
2023-04-29T15:12:59.479Z,21.70
2023-04-29T15:15:27.581Z,21.80
2023-04-29T15:17:54.524Z,21.90
2023-04-29T15:20:23.728Z,21.90
2023-04-29T15:22:51.994Z,21.90
2023-04-29T15:25:19.294Z,21.60
2023-04-29T15:27:48.411Z,21.40
2023-04-29T15:30:15.329Z,21.20
2023-04-29T15:32:42.096Z,21.00
2023-04-29T15:35:08.991Z,21.00
2023-04-29T15:37:35.639Z,21.20
2023-04-29T15:40:02.398Z,21.20
2023-04-29T15:42:29.432Z,21.00
2023-04-29T15:44:56.255Z,20.80
2023-04-29T15:47:23.192Z,20.70
2023-04-29T15:49:52.559Z,20.50
2023-04-29T15:52:19.929Z,20.30
2023-04-29T15:54:51.439Z,20.30
2023-04-29T15:57:18.091Z,20.00
2023-04-29T15:59:45.547Z,19.90
2023-04-29T16:02:12.220Z,19.90
2023-04-29T16:04:39.383Z,19.80
2023-04-29T16:07:08.371Z,19.80
2023-04-29T16:09:35.840Z,19.70
2023-04-29T16:12:02.776Z,19.60
2023-04-29T16:14:30.336Z,19.50
2023-04-29T16:16:57.868Z,19.30
2023-04-29T16:19:24.958Z,19.20
2023-04-29T16:21:53.961Z,19.10
2023-04-29T16:24:24.309Z,19.10
2023-04-29T16:26:53.832Z,19.10
2023-04-29T16:29:26.541Z,19.00
2023-04-29T16:31:53.871Z,18.90
2023-04-29T16:34:24.539Z,18.80
2023-04-29T16:36:53.239Z,18.70
2023-04-29T16:39:20.454Z,18.60
2023-04-29T16:41:48.040Z,18.60
2023-04-29T16:44:14.962Z,18.60
2023-04-29T16:46:42.063Z,18.40
2023-04-29T16:49:09.008Z,18.40
2023-04-29T16:51:35.899Z,18.30
2023-04-29T16:54:03.794Z,18.30
2023-04-29T16:56:30.765Z,18.20
2023-04-29T16:58:57.752Z,18.10
2023-04-29T17:01:24.771Z,18.00
2023-04-29T17:03:51.510Z,17.90
2023-04-29T17:06:18.558Z,17.70
2023-04-29T17:08:45.823Z,17.60
2023-04-29T17:11:12.715Z,17.50
2023-04-29T17:13:39.420Z,17.50
2023-04-29T17:16:07.218Z,17.40
2023-04-29T17:18:34.266Z,17.40
2023-04-29T17:21:00.976Z,17.40
2023-04-29T17:23:27.998Z,17.30
2023-04-29T17:25:55.699Z,17.20
2023-04-29T17:28:23.900Z,17.10
2023-04-29T17:30:51.749Z,17.00
2023-04-29T17:33:18.474Z,16.90
2023-04-29T17:35:46.182Z,16.80
2023-04-29T17:38:14.234Z,16.70
2023-04-29T17:40:41.050Z,16.60
2023-04-29T17:43:15.544Z,16.50
2023-04-29T17:45:42.120Z,16.40
2023-04-29T17:48:08.835Z,16.30
2023-04-29T17:50:39.480Z,16.20
2023-04-29T17:53:06.384Z,16.20
2023-04-29T17:55:33.527Z,16.00
2023-04-29T17:58:00.434Z,16.00
2023-04-29T18:00:30.779Z,15.90
2023-04-29T18:02:57.499Z,15.80
2023-04-29T18:05:24.263Z,15.70
2023-04-29T18:07:51.276Z,15.60
2023-04-29T18:10:18.007Z,15.50
2023-04-29T18:12:44.851Z,15.30
2023-04-29T18:15:14.243Z,15.20
2023-04-29T18:17:40.912Z,15.10
2023-04-29T18:20:08.402Z,15.00
2023-04-29T18:22:36.171Z,14.90
2023-04-29T18:25:03.931Z,14.80
2023-04-29T18:27:31.056Z,14.60
2023-04-29T18:29:57.773Z,14.50
2023-04-29T18:32:25.185Z,14.40
2023-04-29T18:34:52.059Z,14.30
2023-04-29T18:37:18.919Z,14.20
2023-04-29T18:39:46.779Z,14.00
2023-04-29T18:42:13.753Z,14.00
2023-04-29T18:44:41.576Z,13.80
2023-04-29T18:47:12.878Z,13.70
2023-04-29T18:49:39.672Z,13.60
2023-04-29T18:52:06.688Z,13.60
2023-04-29T18:54:36.056Z,13.50
2023-04-29T18:57:02.781Z,13.50
2023-04-29T18:59:29.912Z,13.40
2023-04-29T19:01:56.672Z,13.40
2023-04-29T19:04:23.935Z,13.30
2023-04-29T19:06:50.625Z,13.30
2023-04-29T19:09:17.351Z,13.30
2023-04-29T19:11:44.541Z,13.30
2023-04-29T19:14:11.490Z,13.30
2023-04-29T19:16:38.273Z,13.30
2023-04-29T19:19:05.303Z,13.30
2023-04-29T19:21:33.751Z,13.30
2023-04-29T19:24:00.476Z,13.30
2023-04-29T19:26:28.922Z,13.30
2023-04-29T19:28:55.535Z,13.30
2023-04-29T19:31:23.320Z,13.30
2023-04-29T19:33:52.006Z,13.20
2023-04-29T19:36:19.060Z,13.10
2023-04-29T19:38:46.975Z,13.10
2023-04-29T19:41:13.690Z,13.00
2023-04-29T19:43:40.433Z,12.90
2023-04-29T19:46:07.206Z,12.90
2023-04-29T19:48:33.983Z,12.80
2023-04-29T19:51:01.202Z,12.80
2023-04-29T19:53:28.131Z,12.70
2023-04-29T19:55:55.136Z,12.70
2023-04-29T19:58:22.027Z,12.70
2023-04-29T20:00:48.799Z,12.60
2023-04-29T20:03:16.101Z,12.60
2023-04-29T20:05:43.518Z,12.60
2023-04-29T20:08:10.226Z,12.60
2023-04-29T20:10:38.243Z,12.60
2023-04-29T20:13:04.901Z,12.60
2023-04-29T20:15:31.712Z,12.60
2023-04-29T20:17:58.788Z,12.60
2023-04-29T20:20:28.685Z,12.60
2023-04-29T20:22:58.084Z,12.70
2023-04-29T20:25:27.974Z,12.60
2023-04-29T20:27:56.989Z,12.60
2023-04-29T20:30:24.180Z,12.60
2023-04-29T20:32:50.917Z,12.60
2023-04-29T20:35:18.568Z,12.60
2023-04-29T20:37:45.962Z,12.60
2023-04-29T20:40:13.121Z,12.50
2023-04-29T20:42:40.130Z,12.50
2023-04-29T20:45:07.272Z,12.40
2023-04-29T20:47:36.060Z,12.50
2023-04-29T20:50:04.654Z,12.40
2023-04-29T20:52:31.411Z,12.40
2023-04-29T20:54:58.961Z,12.40
2023-04-29T20:57:26.378Z,12.30
2023-04-29T20:59:53.612Z,12.30
2023-04-29T21:02:22.193Z,12.30
2023-04-29T21:04:49.161Z,12.30
2023-04-29T21:07:15.824Z,12.30
2023-04-29T21:09:42.541Z,12.30
2023-04-29T21:12:09.871Z,12.30
2023-04-29T21:14:41.486Z,12.20
2023-04-29T21:17:11.531Z,12.20
2023-04-29T21:19:39.029Z,12.20
2023-04-29T21:22:05.851Z,12.20
2023-04-29T21:24:32.596Z,12.20
2023-04-29T21:26:59.473Z,12.20
2023-04-29T21:29:26.209Z,12.20
2023-04-29T21:31:53.174Z,12.10
2023-04-29T21:34:20.011Z,12.10
2023-04-29T21:36:47.949Z,12.10
2023-04-29T21:39:14.866Z,12.10
2023-04-29T21:41:43.139Z,12.10
2023-04-29T21:44:10.069Z,12.10
2023-04-29T21:46:39.547Z,12.00
2023-04-29T21:49:06.544Z,12.10
2023-04-29T21:51:36.495Z,12.00
2023-04-29T21:54:08.820Z,12.00
2023-04-29T21:56:35.877Z,12.00
2023-04-29T21:59:03.175Z,12.00
2023-04-29T22:01:48.134Z,12.00
2023-04-29T22:04:16.881Z,12.00
2023-04-29T22:06:44.023Z,11.90
2023-04-29T22:09:11.086Z,11.80
2023-04-29T22:11:38.819Z,11.80
2023-04-29T22:14:05.594Z,11.70
2023-04-29T22:16:35.091Z,11.60
2023-04-29T22:19:02.022Z,11.60
2023-04-29T22:21:29.513Z,11.50
2023-04-29T22:23:57.481Z,11.50
2023-04-29T22:26:26.175Z,11.50
2023-04-29T22:28:53.192Z,11.40
2023-04-29T22:31:23.301Z,11.40
2023-04-29T22:33:51.006Z,11.40
2023-04-29T22:36:19.087Z,11.40
2023-04-29T22:38:47.028Z,11.40
2023-04-29T22:41:14.791Z,11.30
2023-04-29T22:43:41.898Z,11.30
2023-04-29T22:46:11.691Z,11.30
2023-04-29T22:48:38.465Z,11.30
2023-04-29T22:51:05.820Z,11.20
2023-04-29T22:53:33.497Z,11.20
2023-04-29T22:56:00.744Z,11.10
2023-04-29T22:58:27.513Z,11.10
2023-04-29T23:00:56.873Z,11.00
2023-04-29T23:03:24.166Z,11.00
2023-04-29T23:05:51.347Z,11.00
2023-04-29T23:08:18.439Z,11.10
2023-04-29T23:10:51.190Z,11.10
2023-04-29T23:13:17.842Z,11.10
2023-04-29T23:15:45.095Z,11.20
2023-04-29T23:18:12.624Z,11.20
2023-04-29T23:20:39.400Z,11.20
2023-04-29T23:23:09.263Z,11.30
2023-04-29T23:25:36.134Z,11.30
2023-04-29T23:28:02.819Z,11.30
2023-04-29T23:30:29.603Z,11.30
2023-04-29T23:32:59.439Z,11.30
2023-04-29T23:35:27.131Z,11.30
2023-04-29T23:37:54.979Z,11.40
2023-04-29T23:40:21.654Z,11.40
2023-04-29T23:42:49.689Z,11.40
2023-04-29T23:45:17.560Z,11.40
2023-04-29T23:47:44.479Z,11.40
2023-04-29T23:50:11.149Z,11.40
2023-04-29T23:52:39.575Z,11.50
2023-04-29T23:55:06.608Z,11.50
2023-04-29T23:57:33.292Z,11.50
